sensor_id;sensor_type;location;lat;lon;timestamp;P1;durP1;ratioP1;P2;durP2;ratioP2
74523;SDS011;63074;44.696;10.358;2022-12-20T00:00:17;70.68;;;26.58;;
74523;SDS011;63074;44.696;10.358;2022-12-20T00:02:44;67.32;;;26.13;;
74523;SDS011;63074;44.696;10.358;2022-12-20T00:05:10;76.70;;;28.33;;
74523;SDS011;63074;44.696;10.358;2022-12-20T00:07:36;70.70;;;29.38;;
74523;SDS011;63074;44.696;10.358;2022-12-20T00:10:02;69.45;;;29.63;;
74523;SDS011;63074;44.696;10.358;2022-12-20T00:12:29;73.68;;;28.98;;
74523;SDS011;63074;44.696;10.358;2022-12-20T00:14:55;75.65;;;30.60;;
74523;SDS011;63074;44.696;10.358;2022-12-20T00:17:21;75.25;;;30.13;;
74523;SDS011;63074;44.696;10.358;2022-12-20T00:19:48;76.25;;;30.90;;
74523;SDS011;63074;44.696;10.358;2022-12-20T00:22:14;76.18;;;31.63;;
74523;SDS011;63074;44.696;10.358;2022-12-20T00:24:40;75.25;;;30.65;;
74523;SDS011;63074;44.696;10.358;2022-12-20T00:27:06;73.72;;;29.45;;
74523;SDS011;63074;44.696;10.358;2022-12-20T00:29:32;80.15;;;33.33;;
74523;SDS011;63074;44.696;10.358;2022-12-20T00:31:59;80.65;;;32.45;;
74523;SDS011;63074;44.696;10.358;2022-12-20T00:34:25;77.70;;;32.42;;
74523;SDS011;63074;44.696;10.358;2022-12-20T00:36:51;72.65;;;29.98;;
74523;SDS011;63074;44.696;10.358;2022-12-20T00:39:17;72.68;;;32.63;;
74523;SDS011;63074;44.696;10.358;2022-12-20T00:41:43;72.68;;;30.80;;
74523;SDS011;63074;44.696;10.358;2022-12-20T00:44:10;84.40;;;32.30;;
74523;SDS011;63074;44.696;10.358;2022-12-20T00:46:36;86.13;;;34.28;;
74523;SDS011;63074;44.696;10.358;2022-12-20T00:49:02;85.35;;;35.05;;
74523;SDS011;63074;44.696;10.358;2022-12-20T00:51:28;86.65;;;35.17;;
74523;SDS011;63074;44.696;10.358;2022-12-20T00:53:56;82.82;;;34.15;;
74523;SDS011;63074;44.696;10.358;2022-12-20T00:56:22;80.97;;;32.47;;
74523;SDS011;63074;44.696;10.358;2022-12-20T00:58:49;82.85;;;33.10;;
74523;SDS011;63074;44.696;10.358;2022-12-20T01:01:18;79.07;;;33.25;;
74523;SDS011;63074;44.696;10.358;2022-12-20T01:03:52;76.95;;;31.77;;
74523;SDS011;63074;44.696;10.358;2022-12-20T01:06:19;74.60;;;33.80;;
74523;SDS011;63074;44.696;10.358;2022-12-20T01:08:46;76.38;;;34.03;;
74523;SDS011;63074;44.696;10.358;2022-12-20T01:13:42;79.22;;;33.05;;
74523;SDS011;63074;44.696;10.358;2022-12-20T01:16:14;73.00;;;34.17;;
74523;SDS011;63074;44.696;10.358;2022-12-20T01:18:43;77.13;;;33.13;;
74523;SDS011;63074;44.696;10.358;2022-12-20T01:21:10;83.90;;;35.78;;
74523;SDS011;63074;44.696;10.358;2022-12-20T01:23:38;80.90;;;32.70;;
74523;SDS011;63074;44.696;10.358;2022-12-20T01:26:05;76.28;;;32.33;;
74523;SDS011;63074;44.696;10.358;2022-12-20T01:28:35;79.10;;;31.30;;
74523;SDS011;63074;44.696;10.358;2022-12-20T01:31:06;73.28;;;30.90;;
74523;SDS011;63074;44.696;10.358;2022-12-20T01:33:34;76.57;;;34.83;;
74523;SDS011;63074;44.696;10.358;2022-12-20T01:36:02;77.18;;;33.28;;
74523;SDS011;63074;44.696;10.358;2022-12-20T01:38:31;82.68;;;33.13;;
74523;SDS011;63074;44.696;10.358;2022-12-20T01:40:59;69.55;;;32.67;;
74523;SDS011;63074;44.696;10.358;2022-12-20T01:43:43;78.88;;;32.65;;
74523;SDS011;63074;44.696;10.358;2022-12-20T01:46:13;81.70;;;32.10;;
74523;SDS011;63074;44.696;10.358;2022-12-20T01:48:40;75.75;;;33.05;;
74523;SDS011;63074;44.696;10.358;2022-12-20T01:51:10;72.47;;;32.25;;
74523;SDS011;63074;44.696;10.358;2022-12-20T01:53:36;69.13;;;31.77;;
74523;SDS011;63074;44.696;10.358;2022-12-20T01:56:04;75.10;;;32.63;;
74523;SDS011;63074;44.696;10.358;2022-12-20T01:58:32;72.57;;;31.58;;
74523;SDS011;63074;44.696;10.358;2022-12-20T02:01:00;72.07;;;31.40;;
74523;SDS011;63074;44.696;10.358;2022-12-20T02:03:27;76.18;;;33.15;;
74523;SDS011;63074;44.696;10.358;2022-12-20T02:05:56;74.90;;;31.92;;
74523;SDS011;63074;44.696;10.358;2022-12-20T02:08:33;69.68;;;30.05;;
74523;SDS011;63074;44.696;10.358;2022-12-20T02:25:24;72.82;;;30.00;;
74523;SDS011;63074;44.696;10.358;2022-12-20T02:30:50;71.00;;;30.08;;
74523;SDS011;63074;44.696;10.358;2022-12-20T02:33:19;73.68;;;31.23;;
74523;SDS011;63074;44.696;10.358;2022-12-20T02:35:49;76.65;;;31.98;;
74523;SDS011;63074;44.696;10.358;2022-12-20T02:40:57;79.07;;;32.03;;
74523;SDS011;63074;44.696;10.358;2022-12-20T02:43:27;77.97;;;31.50;;
74523;SDS011;63074;44.696;10.358;2022-12-20T02:46:14;69.10;;;32.63;;
74523;SDS011;63074;44.696;10.358;2022-12-20T02:48:43;77.72;;;33.35;;
74523;SDS011;63074;44.696;10.358;2022-12-20T02:51:13;72.72;;;31.02;;
74523;SDS011;63074;44.696;10.358;2022-12-20T02:53:43;74.68;;;31.90;;
74523;SDS011;63074;44.696;10.358;2022-12-20T02:56:15;76.75;;;29.92;;
74523;SDS011;63074;44.696;10.358;2022-12-20T03:04:14;76.82;;;30.75;;
74523;SDS011;63074;44.696;10.358;2022-12-20T03:07:05;76.22;;;31.67;;
74523;SDS011;63074;44.696;10.358;2022-12-20T03:09:34;77.85;;;32.13;;
74523;SDS011;63074;44.696;10.358;2022-12-20T03:12:03;80.07;;;33.33;;
74523;SDS011;63074;44.696;10.358;2022-12-20T03:14:30;78.32;;;31.45;;
74523;SDS011;63074;44.696;10.358;2022-12-20T03:16:56;79.63;;;33.50;;
74523;SDS011;63074;44.696;10.358;2022-12-20T03:19:23;70.07;;;30.02;;
74523;SDS011;63074;44.696;10.358;2022-12-20T03:21:50;78.80;;;33.67;;
74523;SDS011;63074;44.696;10.358;2022-12-20T03:24:16;77.45;;;32.03;;
74523;SDS011;63074;44.696;10.358;2022-12-20T03:26:42;78.22;;;32.30;;
74523;SDS011;63074;44.696;10.358;2022-12-20T03:29:09;72.90;;;32.67;;
74523;SDS011;63074;44.696;10.358;2022-12-20T03:31:35;72.03;;;30.75;;
74523;SDS011;63074;44.696;10.358;2022-12-20T03:34:03;81.90;;;32.38;;
74523;SDS011;63074;44.696;10.358;2022-12-20T03:36:29;76.45;;;31.92;;
74523;SDS011;63074;44.696;10.358;2022-12-20T03:38:56;77.65;;;30.75;;
74523;SDS011;63074;44.696;10.358;2022-12-20T03:41:22;76.68;;;34.35;;
74523;SDS011;63074;44.696;10.358;2022-12-20T03:43:48;74.95;;;31.25;;
74523;SDS011;63074;44.696;10.358;2022-12-20T03:46:15;75.85;;;32.40;;
74523;SDS011;63074;44.696;10.358;2022-12-20T03:48:42;78.13;;;32.45;;
74523;SDS011;63074;44.696;10.358;2022-12-20T03:51:08;75.38;;;30.40;;
74523;SDS011;63074;44.696;10.358;2022-12-20T03:53:35;75.20;;;31.95;;
74523;SDS011;63074;44.696;10.358;2022-12-20T03:56:01;76.55;;;32.88;;
74523;SDS011;63074;44.696;10.358;2022-12-20T03:58:27;75.03;;;31.85;;
74523;SDS011;63074;44.696;10.358;2022-12-20T04:00:55;79.00;;;31.58;;
74523;SDS011;63074;44.696;10.358;2022-12-20T04:03:21;72.75;;;30.48;;
74523;SDS011;63074;44.696;10.358;2022-12-20T04:05:47;78.28;;;31.48;;
74523;SDS011;63074;44.696;10.358;2022-12-20T04:08:14;80.00;;;32.70;;
74523;SDS011;63074;44.696;10.358;2022-12-20T04:10:40;76.72;;;31.63;;
74523;SDS011;63074;44.696;10.358;2022-12-20T04:13:24;79.80;;;33.47;;
74523;SDS011;63074;44.696;10.358;2022-12-20T04:15:50;89.57;;;35.53;;
74523;SDS011;63074;44.696;10.358;2022-12-20T04:18:17;90.35;;;34.58;;
74523;SDS011;63074;44.696;10.358;2022-12-20T04:20:44;86.47;;;35.67;;
74523;SDS011;63074;44.696;10.358;2022-12-20T04:23:10;82.57;;;32.25;;
74523;SDS011;63074;44.696;10.358;2022-12-20T04:25:36;96.05;;;36.25;;
74523;SDS011;63074;44.696;10.358;2022-12-20T04:28:02;84.32;;;35.00;;
74523;SDS011;63074;44.696;10.358;2022-12-20T04:30:28;84.78;;;33.70;;
74523;SDS011;63074;44.696;10.358;2022-12-20T04:32:54;83.20;;;32.97;;
74523;SDS011;63074;44.696;10.358;2022-12-20T04:35:21;95.30;;;37.40;;
74523;SDS011;63074;44.696;10.358;2022-12-20T04:37:47;101.03;;;40.42;;
74523;SDS011;63074;44.696;10.358;2022-12-20T04:40:14;109.38;;;38.10;;
74523;SDS011;63074;44.696;10.358;2022-12-20T04:42:40;130.40;;;47.58;;
74523;SDS011;63074;44.696;10.358;2022-12-20T04:45:06;101.32;;;38.88;;
74523;SDS011;63074;44.696;10.358;2022-12-20T04:47:33;98.32;;;37.88;;
74523;SDS011;63074;44.696;10.358;2022-12-20T04:49:59;92.10;;;37.35;;
74523;SDS011;63074;44.696;10.358;2022-12-20T04:52:25;98.60;;;40.80;;
74523;SDS011;63074;44.696;10.358;2022-12-20T04:55:10;93.03;;;36.65;;
74523;SDS011;63074;44.696;10.358;2022-12-20T04:57:36;91.90;;;37.53;;
74523;SDS011;63074;44.696;10.358;2022-12-20T05:00:02;97.53;;;39.20;;
74523;SDS011;63074;44.696;10.358;2022-12-20T05:02:29;95.00;;;39.83;;
74523;SDS011;63074;44.696;10.358;2022-12-20T05:04:55;89.85;;;38.17;;
74523;SDS011;63074;44.696;10.358;2022-12-20T05:07:21;95.45;;;39.15;;
74523;SDS011;63074;44.696;10.358;2022-12-20T05:09:48;90.97;;;40.45;;
74523;SDS011;63074;44.696;10.358;2022-12-20T05:12:14;98.07;;;39.38;;
74523;SDS011;63074;44.696;10.358;2022-12-20T05:14:40;89.38;;;38.17;;
74523;SDS011;63074;44.696;10.358;2022-12-20T05:17:06;93.07;;;39.67;;
74523;SDS011;63074;44.696;10.358;2022-12-20T05:19:33;93.72;;;40.63;;
74523;SDS011;63074;44.696;10.358;2022-12-20T05:22:00;93.10;;;36.90;;
74523;SDS011;63074;44.696;10.358;2022-12-20T05:24:44;93.63;;;40.05;;
74523;SDS011;63074;44.696;10.358;2022-12-20T05:27:29;85.60;;;37.47;;
74523;SDS011;63074;44.696;10.358;2022-12-20T05:29:55;89.95;;;38.45;;
74523;SDS011;63074;44.696;10.358;2022-12-20T05:32:22;92.63;;;39.22;;
74523;SDS011;63074;44.696;10.358;2022-12-20T05:34:48;92.80;;;38.83;;
74523;SDS011;63074;44.696;10.358;2022-12-20T05:37:14;96.25;;;39.78;;
74523;SDS011;63074;44.696;10.358;2022-12-20T05:39:40;88.53;;;38.40;;
74523;SDS011;63074;44.696;10.358;2022-12-20T05:42:06;89.65;;;40.67;;
74523;SDS011;63074;44.696;10.358;2022-12-20T05:44:33;92.80;;;39.42;;
74523;SDS011;63074;44.696;10.358;2022-12-20T05:46:59;91.47;;;39.25;;
74523;SDS011;63074;44.696;10.358;2022-12-20T05:49:25;89.05;;;41.28;;
74523;SDS011;63074;44.696;10.358;2022-12-20T05:51:51;91.60;;;39.08;;
74523;SDS011;63074;44.696;10.358;2022-12-20T05:54:17;102.38;;;41.97;;
74523;SDS011;63074;44.696;10.358;2022-12-20T05:56:44;96.63;;;40.63;;
74523;SDS011;63074;44.696;10.358;2022-12-20T05:59:10;93.95;;;42.35;;
74523;SDS011;63074;44.696;10.358;2022-12-20T06:01:36;86.03;;;38.35;;
74523;SDS011;63074;44.696;10.358;2022-12-20T06:04:03;91.50;;;42.47;;
74523;SDS011;63074;44.696;10.358;2022-12-20T06:06:29;89.63;;;40.20;;
74523;SDS011;63074;44.696;10.358;2022-12-20T06:08:55;81.72;;;38.95;;
74523;SDS011;63074;44.696;10.358;2022-12-20T06:11:22;88.30;;;39.80;;
74523;SDS011;63074;44.696;10.358;2022-12-20T06:13:48;90.88;;;41.30;;
74523;SDS011;63074;44.696;10.358;2022-12-20T06:16:14;108.43;;;46.80;;
74523;SDS011;63074;44.696;10.358;2022-12-20T06:18:43;92.82;;;41.15;;
74523;SDS011;63074;44.696;10.358;2022-12-20T06:21:09;87.88;;;39.83;;
74523;SDS011;63074;44.696;10.358;2022-12-20T06:23:35;88.20;;;39.20;;
74523;SDS011;63074;44.696;10.358;2022-12-20T06:26:02;85.10;;;38.50;;
74523;SDS011;63074;44.696;10.358;2022-12-20T06:28:28;83.75;;;40.03;;
74523;SDS011;63074;44.696;10.358;2022-12-20T06:30:55;83.07;;;39.42;;
74523;SDS011;63074;44.696;10.358;2022-12-20T06:33:22;87.07;;;40.42;;
74523;SDS011;63074;44.696;10.358;2022-12-20T06:35:49;87.97;;;39.35;;
74523;SDS011;63074;44.696;10.358;2022-12-20T06:38:16;84.47;;;38.30;;
74523;SDS011;63074;44.696;10.358;2022-12-20T06:40:42;82.53;;;39.13;;
74523;SDS011;63074;44.696;10.358;2022-12-20T06:43:08;82.45;;;39.75;;
74523;SDS011;63074;44.696;10.358;2022-12-20T06:45:34;88.65;;;42.17;;
74523;SDS011;63074;44.696;10.358;2022-12-20T06:48:01;85.55;;;40.00;;
74523;SDS011;63074;44.696;10.358;2022-12-20T06:50:27;84.65;;;41.30;;
74523;SDS011;63074;44.696;10.358;2022-12-20T06:52:53;86.38;;;41.88;;
74523;SDS011;63074;44.696;10.358;2022-12-20T06:55:19;86.43;;;41.38;;
74523;SDS011;63074;44.696;10.358;2022-12-20T06:57:45;84.80;;;40.90;;
74523;SDS011;63074;44.696;10.358;2022-12-20T07:00:11;89.88;;;44.33;;
74523;SDS011;63074;44.696;10.358;2022-12-20T07:02:38;85.05;;;41.70;;
74523;SDS011;63074;44.696;10.358;2022-12-20T07:05:04;89.78;;;42.22;;
74523;SDS011;63074;44.696;10.358;2022-12-20T07:07:31;81.55;;;42.22;;
74523;SDS011;63074;44.696;10.358;2022-12-20T07:09:57;86.68;;;41.05;;
74523;SDS011;63074;44.696;10.358;2022-12-20T07:12:23;85.47;;;40.38;;
74523;SDS011;63074;44.696;10.358;2022-12-20T07:14:50;85.00;;;40.10;;
74523;SDS011;63074;44.696;10.358;2022-12-20T07:17:16;85.72;;;39.45;;
74523;SDS011;63074;44.696;10.358;2022-12-20T07:19:42;82.63;;;39.40;;
74523;SDS011;63074;44.696;10.358;2022-12-20T07:22:08;89.05;;;43.50;;
74523;SDS011;63074;44.696;10.358;2022-12-20T07:24:34;84.43;;;40.83;;
74523;SDS011;63074;44.696;10.358;2022-12-20T07:27:00;86.15;;;42.90;;
74523;SDS011;63074;44.696;10.358;2022-12-20T07:29:27;84.03;;;38.88;;
74523;SDS011;63074;44.696;10.358;2022-12-20T07:31:53;84.32;;;39.30;;
74523;SDS011;63074;44.696;10.358;2022-12-20T07:34:19;79.78;;;40.13;;
74523;SDS011;63074;44.696;10.358;2022-12-20T07:36:46;81.32;;;40.00;;
74523;SDS011;63074;44.696;10.358;2022-12-20T07:39:12;80.28;;;41.38;;
74523;SDS011;63074;44.696;10.358;2022-12-20T07:41:38;85.63;;;41.35;;
74523;SDS011;63074;44.696;10.358;2022-12-20T07:44:05;83.45;;;41.58;;
74523;SDS011;63074;44.696;10.358;2022-12-20T07:46:31;84.40;;;40.00;;
74523;SDS011;63074;44.696;10.358;2022-12-20T07:48:57;82.28;;;39.28;;
74523;SDS011;63074;44.696;10.358;2022-12-20T07:51:25;92.90;;;43.50;;
74523;SDS011;63074;44.696;10.358;2022-12-20T07:54:05;87.45;;;41.70;;
74523;SDS011;63074;44.696;10.358;2022-12-20T07:56:41;89.63;;;43.40;;
74523;SDS011;63074;44.696;10.358;2022-12-20T07:59:11;83.28;;;42.83;;
74523;SDS011;63074;44.696;10.358;2022-12-20T08:01:40;87.50;;;42.22;;
74523;SDS011;63074;44.696;10.358;2022-12-20T08:04:13;85.30;;;40.65;;
74523;SDS011;63074;44.696;10.358;2022-12-20T08:06:43;89.10;;;41.05;;
74523;SDS011;63074;44.696;10.358;2022-12-20T08:09:10;84.25;;;42.08;;
74523;SDS011;63074;44.696;10.358;2022-12-20T08:11:38;85.68;;;41.83;;
74523;SDS011;63074;44.696;10.358;2022-12-20T08:14:07;90.95;;;43.08;;
74523;SDS011;63074;44.696;10.358;2022-12-20T08:16:34;83.55;;;41.65;;
74523;SDS011;63074;44.696;10.358;2022-12-20T08:19:00;90.30;;;43.15;;
74523;SDS011;63074;44.696;10.358;2022-12-20T08:21:27;89.05;;;43.13;;
74523;SDS011;63074;44.696;10.358;2022-12-20T08:23:54;84.20;;;40.75;;
74523;SDS011;63074;44.696;10.358;2022-12-20T08:26:20;82.47;;;40.70;;
74523;SDS011;63074;44.696;10.358;2022-12-20T08:28:47;81.32;;;40.08;;
74523;SDS011;63074;44.696;10.358;2022-12-20T08:31:13;81.50;;;39.35;;
74523;SDS011;63074;44.696;10.358;2022-12-20T08:33:39;79.85;;;39.65;;
74523;SDS011;63074;44.696;10.358;2022-12-20T08:36:07;82.70;;;40.60;;
74523;SDS011;63074;44.696;10.358;2022-12-20T08:38:35;82.63;;;40.88;;
74523;SDS011;63074;44.696;10.358;2022-12-20T08:41:09;87.80;;;40.20;;
74523;SDS011;63074;44.696;10.358;2022-12-20T08:43:37;88.97;;;41.10;;
74523;SDS011;63074;44.696;10.358;2022-12-20T08:46:04;85.13;;;42.08;;
74523;SDS011;63074;44.696;10.358;2022-12-20T08:48:32;83.93;;;38.55;;
74523;SDS011;63074;44.696;10.358;2022-12-20T08:50:59;86.38;;;40.08;;
74523;SDS011;63074;44.696;10.358;2022-12-20T08:53:28;82.40;;;39.53;;
74523;SDS011;63074;44.696;10.358;2022-12-20T08:56:02;86.18;;;42.28;;
74523;SDS011;63074;44.696;10.358;2022-12-20T08:58:33;87.35;;;40.55;;
74523;SDS011;63074;44.696;10.358;2022-12-20T09:01:00;78.38;;;38.78;;
74523;SDS011;63074;44.696;10.358;2022-12-20T09:03:28;77.22;;;36.20;;
74523;SDS011;63074;44.696;10.358;2022-12-20T09:05:55;86.22;;;39.13;;
74523;SDS011;63074;44.696;10.358;2022-12-20T09:08:22;87.07;;;42.55;;
74523;SDS011;63074;44.696;10.358;2022-12-20T09:10:48;84.00;;;40.28;;
74523;SDS011;63074;44.696;10.358;2022-12-20T09:13:15;83.22;;;39.92;;
74523;SDS011;63074;44.696;10.358;2022-12-20T09:15:41;85.10;;;39.28;;
74523;SDS011;63074;44.696;10.358;2022-12-20T09:18:09;85.00;;;40.88;;
74523;SDS011;63074;44.696;10.358;2022-12-20T09:20:35;81.72;;;39.42;;
74523;SDS011;63074;44.696;10.358;2022-12-20T09:23:08;90.60;;;38.90;;
74523;SDS011;63074;44.696;10.358;2022-12-20T09:25:34;82.60;;;38.13;;
74523;SDS011;63074;44.696;10.358;2022-12-20T09:28:01;85.68;;;42.53;;
74523;SDS011;63074;44.696;10.358;2022-12-20T09:30:28;80.97;;;36.63;;
74523;SDS011;63074;44.696;10.358;2022-12-20T09:32:54;80.85;;;39.03;;
74523;SDS011;63074;44.696;10.358;2022-12-20T09:35:21;86.63;;;40.70;;
74523;SDS011;63074;44.696;10.358;2022-12-20T09:37:47;82.15;;;37.65;;
74523;SDS011;63074;44.696;10.358;2022-12-20T09:40:17;84.60;;;39.75;;
74523;SDS011;63074;44.696;10.358;2022-12-20T09:42:46;80.53;;;37.47;;
74523;SDS011;63074;44.696;10.358;2022-12-20T09:45:18;84.57;;;38.22;;
74523;SDS011;63074;44.696;10.358;2022-12-20T09:47:50;86.25;;;41.45;;
74523;SDS011;63074;44.696;10.358;2022-12-20T09:50:16;81.97;;;39.55;;
74523;SDS011;63074;44.696;10.358;2022-12-20T09:58:13;89.20;;;38.35;;
74523;SDS011;63074;44.696;10.358;2022-12-20T10:00:51;76.88;;;37.08;;
74523;SDS011;63074;44.696;10.358;2022-12-20T10:03:30;77.43;;;37.28;;
74523;SDS011;63074;44.696;10.358;2022-12-20T10:06:07;80.55;;;37.40;;
74523;SDS011;63074;44.696;10.358;2022-12-20T10:09:00;76.63;;;38.28;;
74523;SDS011;63074;44.696;10.358;2022-12-20T10:11:51;79.30;;;38.05;;
74523;SDS011;63074;44.696;10.358;2022-12-20T10:17:03;76.93;;;35.47;;
74523;SDS011;63074;44.696;10.358;2022-12-20T10:22:34;76.50;;;37.65;;
74523;SDS011;63074;44.696;10.358;2022-12-20T10:25:12;76.90;;;36.70;;
74523;SDS011;63074;44.696;10.358;2022-12-20T10:27:44;81.18;;;37.83;;
74523;SDS011;63074;44.696;10.358;2022-12-20T10:30:13;83.18;;;37.35;;
74523;SDS011;63074;44.696;10.358;2022-12-20T10:32:42;82.20;;;39.33;;
74523;SDS011;63074;44.696;10.358;2022-12-20T10:35:15;81.05;;;38.33;;
74523;SDS011;63074;44.696;10.358;2022-12-20T10:38:00;80.50;;;38.00;;
74523;SDS011;63074;44.696;10.358;2022-12-20T10:42:57;84.05;;;40.20;;
74523;SDS011;63074;44.696;10.358;2022-12-20T10:48:05;81.38;;;39.00;;
74523;SDS011;63074;44.696;10.358;2022-12-20T10:50:57;78.75;;;38.80;;
74523;SDS011;63074;44.696;10.358;2022-12-20T10:53:25;87.65;;;40.63;;
74523;SDS011;63074;44.696;10.358;2022-12-20T10:55:53;74.00;;;37.22;;
74523;SDS011;63074;44.696;10.358;2022-12-20T10:58:36;80.30;;;37.95;;
74523;SDS011;63074;44.696;10.358;2022-12-20T11:01:16;77.32;;;38.05;;
74523;SDS011;63074;44.696;10.358;2022-12-20T11:03:57;73.38;;;36.72;;
74523;SDS011;63074;44.696;10.358;2022-12-20T11:06:38;77.18;;;37.10;;
74523;SDS011;63074;44.696;10.358;2022-12-20T11:09:16;74.85;;;36.63;;
74523;SDS011;63074;44.696;10.358;2022-12-20T11:11:58;82.18;;;38.10;;
74523;SDS011;63074;44.696;10.358;2022-12-20T11:14:30;74.90;;;36.67;;
74523;SDS011;63074;44.696;10.358;2022-12-20T11:16:58;75.05;;;37.10;;
74523;SDS011;63074;44.696;10.358;2022-12-20T11:19:57;75.25;;;36.28;;
74523;SDS011;63074;44.696;10.358;2022-12-20T11:31:39;71.35;;;37.17;;
74523;SDS011;63074;44.696;10.358;2022-12-20T11:34:41;71.32;;;35.08;;
74523;SDS011;63074;44.696;10.358;2022-12-20T11:37:20;73.45;;;35.08;;
74523;SDS011;63074;44.696;10.358;2022-12-20T11:48:28;75.22;;;35.42;;
74523;SDS011;63074;44.696;10.358;2022-12-20T11:51:00;73.13;;;35.28;;
74523;SDS011;63074;44.696;10.358;2022-12-20T11:53:37;71.72;;;34.60;;
74523;SDS011;63074;44.696;10.358;2022-12-20T11:56:14;73.10;;;35.53;;
74523;SDS011;63074;44.696;10.358;2022-12-20T12:01:16;67.03;;;34.75;;
74523;SDS011;63074;44.696;10.358;2022-12-20T12:04:02;72.68;;;36.30;;
74523;SDS011;63074;44.696;10.358;2022-12-20T12:06:37;76.38;;;39.05;;
74523;SDS011;63074;44.696;10.358;2022-12-20T12:11:34;73.22;;;34.72;;
74523;SDS011;63074;44.696;10.358;2022-12-20T12:14:20;70.40;;;34.20;;
74523;SDS011;63074;44.696;10.358;2022-12-20T12:17:12;67.70;;;34.42;;
74523;SDS011;63074;44.696;10.358;2022-12-20T12:19:49;74.75;;;36.40;;
74523;SDS011;63074;44.696;10.358;2022-12-20T12:22:19;71.45;;;36.45;;
74523;SDS011;63074;44.696;10.358;2022-12-20T12:24:54;72.28;;;35.10;;
74523;SDS011;63074;44.696;10.358;2022-12-20T12:27:26;70.20;;;34.88;;
74523;SDS011;63074;44.696;10.358;2022-12-20T12:29:53;71.07;;;38.17;;
74523;SDS011;63074;44.696;10.358;2022-12-20T12:32:23;75.97;;;37.17;;
74523;SDS011;63074;44.696;10.358;2022-12-20T12:42:47;72.05;;;34.33;;
74523;SDS011;63074;44.696;10.358;2022-12-20T12:51:01;79.43;;;37.72;;
74523;SDS011;63074;44.696;10.358;2022-12-20T13:01:50;70.05;;;35.67;;
74523;SDS011;63074;44.696;10.358;2022-12-20T13:12:00;69.40;;;35.00;;
74523;SDS011;63074;44.696;10.358;2022-12-20T13:17:51;68.47;;;36.00;;
74523;SDS011;63074;44.696;10.358;2022-12-20T13:20:25;80.82;;;38.75;;
74523;SDS011;63074;44.696;10.358;2022-12-20T13:25:41;72.65;;;38.28;;
74523;SDS011;63074;44.696;10.358;2022-12-20T13:33:47;67.28;;;36.45;;
74523;SDS011;63074;44.696;10.358;2022-12-20T13:46:46;72.22;;;35.30;;
74523;SDS011;63074;44.696;10.358;2022-12-20T13:49:25;68.70;;;33.03;;
74523;SDS011;63074;44.696;10.358;2022-12-20T13:54:57;62.28;;;33.00;;
74523;SDS011;63074;44.696;10.358;2022-12-20T13:57:31;58.83;;;31.73;;
74523;SDS011;63074;44.696;10.358;2022-12-20T14:00:21;65.18;;;33.47;;
74523;SDS011;63074;44.696;10.358;2022-12-20T14:02:52;57.38;;;31.60;;
74523;SDS011;63074;44.696;10.358;2022-12-20T14:05:23;64.50;;;31.55;;
74523;SDS011;63074;44.696;10.358;2022-12-20T14:07:58;56.85;;;28.42;;
74523;SDS011;63074;44.696;10.358;2022-12-20T14:10:39;55.03;;;27.30;;
74523;SDS011;63074;44.696;10.358;2022-12-20T14:13:21;52.50;;;24.70;;
74523;SDS011;63074;44.696;10.358;2022-12-20T14:15:49;52.45;;;27.83;;
74523;SDS011;63074;44.696;10.358;2022-12-20T14:18:21;49.33;;;25.35;;
74523;SDS011;63074;44.696;10.358;2022-12-20T14:20:53;52.83;;;26.30;;
74523;SDS011;63074;44.696;10.358;2022-12-20T14:23:24;58.75;;;29.23;;
74523;SDS011;63074;44.696;10.358;2022-12-20T14:26:05;53.53;;;28.17;;
74523;SDS011;63074;44.696;10.358;2022-12-20T14:28:36;54.55;;;27.90;;
74523;SDS011;63074;44.696;10.358;2022-12-20T14:31:21;52.38;;;27.55;;
74523;SDS011;63074;44.696;10.358;2022-12-20T14:33:50;45.15;;;23.60;;
74523;SDS011;63074;44.696;10.358;2022-12-20T14:36:26;46.92;;;24.77;;
74523;SDS011;63074;44.696;10.358;2022-12-20T14:38:52;48.17;;;24.85;;
74523;SDS011;63074;44.696;10.358;2022-12-20T14:41:35;51.47;;;28.25;;
74523;SDS011;63074;44.696;10.358;2022-12-20T14:46:32;53.17;;;26.80;;
74523;SDS011;63074;44.696;10.358;2022-12-20T14:51:44;55.58;;;26.45;;
74523;SDS011;63074;44.696;10.358;2022-12-20T14:54:14;54.88;;;26.95;;
74523;SDS011;63074;44.696;10.358;2022-12-20T14:56:47;54.25;;;27.95;;
74523;SDS011;63074;44.696;10.358;2022-12-20T14:59:23;53.03;;;28.08;;
74523;SDS011;63074;44.696;10.358;2022-12-20T15:01:51;56.22;;;28.75;;
74523;SDS011;63074;44.696;10.358;2022-12-20T15:04:31;63.22;;;31.35;;
74523;SDS011;63074;44.696;10.358;2022-12-20T15:07:02;60.88;;;32.17;;
74523;SDS011;63074;44.696;10.358;2022-12-20T15:09:28;62.30;;;30.15;;
74523;SDS011;63074;44.696;10.358;2022-12-20T15:11:55;66.68;;;33.10;;
74523;SDS011;63074;44.696;10.358;2022-12-20T15:14:25;66.90;;;33.72;;
74523;SDS011;63074;44.696;10.358;2022-12-20T15:17:00;67.00;;;33.05;;
74523;SDS011;63074;44.696;10.358;2022-12-20T15:19:28;65.15;;;34.20;;
74523;SDS011;63074;44.696;10.358;2022-12-20T15:21:56;66.38;;;32.30;;
74523;SDS011;63074;44.696;10.358;2022-12-20T15:24:23;64.93;;;33.47;;
74523;SDS011;63074;44.696;10.358;2022-12-20T15:26:51;68.82;;;34.13;;
74523;SDS011;63074;44.696;10.358;2022-12-20T15:29:21;73.78;;;33.30;;
74523;SDS011;63074;44.696;10.358;2022-12-20T15:31:50;61.00;;;32.33;;
74523;SDS011;63074;44.696;10.358;2022-12-20T15:34:23;69.05;;;33.13;;
74523;SDS011;63074;44.696;10.358;2022-12-20T15:36:59;64.07;;;34.10;;
74523;SDS011;63074;44.696;10.358;2022-12-20T15:39:26;65.22;;;34.10;;
74523;SDS011;63074;44.696;10.358;2022-12-20T15:41:53;56.50;;;29.50;;
74523;SDS011;63074;44.696;10.358;2022-12-20T15:44:23;69.35;;;34.33;;
74523;SDS011;63074;44.696;10.358;2022-12-20T15:46:51;65.20;;;31.48;;
74523;SDS011;63074;44.696;10.358;2022-12-20T15:49:18;67.78;;;32.22;;
74523;SDS011;63074;44.696;10.358;2022-12-20T15:51:46;59.78;;;32.75;;
74523;SDS011;63074;44.696;10.358;2022-12-20T15:54:16;59.28;;;31.73;;
74523;SDS011;63074;44.696;10.358;2022-12-20T15:56:49;57.92;;;29.95;;
74523;SDS011;63074;44.696;10.358;2022-12-20T15:59:15;59.75;;;28.75;;
74523;SDS011;63074;44.696;10.358;2022-12-20T16:01:41;54.75;;;29.35;;
74523;SDS011;63074;44.696;10.358;2022-12-20T16:04:11;60.28;;;30.80;;
74523;SDS011;63074;44.696;10.358;2022-12-20T16:06:44;56.13;;;27.95;;
74523;SDS011;63074;44.696;10.358;2022-12-20T16:09:12;53.95;;;28.92;;
74523;SDS011;63074;44.696;10.358;2022-12-20T16:11:38;50.08;;;26.13;;
74523;SDS011;63074;44.696;10.358;2022-12-20T16:14:05;48.78;;;25.33;;
74523;SDS011;63074;44.696;10.358;2022-12-20T16:16:37;48.13;;;25.33;;
74523;SDS011;63074;44.696;10.358;2022-12-20T16:19:03;46.30;;;26.48;;
74523;SDS011;63074;44.696;10.358;2022-12-20T16:21:30;46.95;;;25.65;;
74523;SDS011;63074;44.696;10.358;2022-12-20T16:24:00;49.40;;;27.23;;
74523;SDS011;63074;44.696;10.358;2022-12-20T16:26:27;54.00;;;27.35;;
74523;SDS011;63074;44.696;10.358;2022-12-20T16:28:53;56.58;;;27.40;;